Time;durP1;ratioP1;P1;durP2;ratioP2;P2;SDS_P1;SDS_P2;PMS_P1;PMS_P2;Temp;Humidity;BMP_temperature;BMP_pressure;BME280_temperature;BME280_humidity;BME280_pressure;Samples;Min_cycle;Max_cycle;Signal;HPM_P1;HPM_P2
2023/04/16 00:52:11;;;;;;;9.03;6.90;;;8.20;99.90;;;;;;5949739;23;20305;-84
2023/04/16 01:22:35;;;;;;;10.17;7.47;;;8.20;99.90;;;;;;5836077;24;20310;-84
2023/04/16 01:42:51;;;;;;;9.90;7.73;;;8.20;99.90;;;;;;5751918;24;20296;-81
2023/04/16 02:13:22;;;;;;;7.70;6.50;;;8.20;99.90;;;;;;5877910;23;20234;-82
2023/04/16 02:38:45;;;;;;;9.60;6.93;;;8.40;99.90;;;;;;5713656;24;20209;-84
2023/04/16 03:14:06;;;;;;;10.47;7.00;;;8.20;99.90;;;;;;5694533;24;20198;-86
2023/04/16 03:44:47;;;;;;;13.77;8.60;;;8.10;99.90;;;;;;5829493;24;20843;-83
2023/04/16 04:09:47;;;;;;;14.70;9.43;;;8.10;99.90;;;;;;5863340;23;20481;-84
2023/04/16 04:30:02;;;;;;;14.20;8.63;;;8.10;99.90;;;;;;5792285;24;20585;-85
2023/04/16 04:55:51;;;;;;;12.60;9.47;;;8.60;99.90;;;;;;6013849;23;20168;-85
2023/04/16 05:00:10;;;;;;;13.50;9.67;;;8.80;99.90;;;;;;5886182;23;20565;-88
2023/04/16 05:21:06;;;;;;;11.50;9.40;;;9.10;99.90;;;;;;5915274;23;20161;-85
2023/04/16 05:51:36;;;;;;;11.57;9.57;;;9.30;99.90;;;;;;5654352;24;20179;-86
2023/04/16 06:22:00;;;;;;;9.80;7.73;;;9.00;99.90;;;;;;5720424;24;20185;-84
2023/04/16 06:51:47;;;;;;;10.13;9.00;;;9.60;99.90;;;;;;5816405;23;20466;-85
2023/04/16 07:17:07;;;;;;;8.90;7.37;;;9.40;99.90;;;;;;5849442;23;20736;-80
2023/04/16 07:37:58;;;;;;;8.63;7.73;;;9.60;99.90;;;;;;5726661;24;20259;-84
2023/04/16 08:03:23;;;;;;;9.20;7.90;;;10.20;99.90;;;;;;5785487;24;20216;-87
2023/04/16 08:23:23;;;;;;;10.83;8.90;;;10.60;99.90;;;;;;5706358;24;20657;-86
2023/04/16 08:49:05;;;;;;;7.80;7.00;;;11.90;95.10;;;;;;5875109;24;20222;-87
2023/04/16 09:09:21;;;;;;;9.43;8.33;;;12.00;94.60;;;;;;5663909;24;20235;-86
2023/04/16 09:39:38;;;;;;;8.30;7.50;;;12.50;91.50;;;;;;5814443;24;20498;-86
2023/04/16 10:09:36;;;;;;;8.97;8.07;;;12.50;92.10;;;;;;5595237;24;20282;-86
2023/04/16 10:50:41;;;;;;;8.80;8.00;;;13.10;90.60;;;;;;6019499;23;20231;-82
2023/04/16 11:26:25;;;;;;;8.70;7.90;;;12.70;90.90;;;;;;5908350;23;20603;-86
2023/04/16 11:30:45;;;;;;;8.70;7.80;;;13.10;90.40;;;;;;5821382;23;20627;-86
2023/04/16 11:56:47;;;;;;;8.97;8.00;;;13.80;86.00;;;;;;5909767;23;20565;-85
2023/04/16 13:23:03;;;;;;;7.33;6.67;;;16.30;75.60;;;;;;5877284;23;20206;-84
2023/04/16 13:43:00;;;;;;;7.50;6.90;;;15.90;78.80;;;;;;5804819;24;20206;-86
2023/04/16 14:03:27;;;;;;;7.33;6.73;;;15.60;81.70;;;;;;5688635;24;20190;-85
2023/04/16 14:28:35;;;;;;;7.23;6.63;;;15.80;80.50;;;;;;5747172;24;20727;-86
2023/04/16 14:44:08;;;;;;;6.70;6.17;;;18.40;67.50;;;;;;5859953;23;20843;-84
2023/04/16 15:29:09;;;;;;;10.03;7.73;;;15.40;82.40;;;;;;5856455;23;20192;-82
2023/04/16 15:55:10;;;;;;;9.50;8.60;;;14.80;86.60;;;;;;5902217;23;20188;-84
2023/04/16 16:25:26;;;;;;;9.43;8.53;;;15.10;84.70;;;;;;5778512;24;20248;-82
2023/04/16 16:55:56;;;;;;;10.10;8.97;;;13.00;91.30;;;;;;5756273;24;20323;-85
2023/04/16 17:26:14;;;;;;;12.60;10.23;;;12.00;95.80;;;;;;5729345;24;20943;-83
2023/04/16 17:51:48;;;;;;;13.33;10.97;;;11.50;99.70;;;;;;5585984;25;20191;-86
2023/04/16 18:17:14;;;;;;;13.10;11.70;;;11.30;99.90;;;;;;5803232;24;20265;-86
2023/04/16 18:42:36;;;;;;;14.80;12.87;;;10.60;99.90;;;;;;5747748;24;20183;-85
2023/04/16 20:13:26;;;;;;;20.87;16.73;;;9.40;99.90;;;;;;5779976;24;20488;-84
2023/04/16 21:19:41;;;;;;;25.87;17.70;;;8.60;99.90;;;;;;5864992;23;20199;-83
2023/04/16 21:50:12;;;;;;;24.67;17.47;;;9.00;99.90;;;;;;5850488;23;20210;-82
2023/04/16 22:15:29;;;;;;;22.10;16.17;;;9.00;99.90;;;;;;5708570;24;20172;-84
2023/04/16 22:35:49;;;;;;;24.73;18.00;;;9.00;99.90;;;;;;5749890;24;20206;-82
2023/04/16 23:11:05;;;;;;;24.63;17.30;;;8.80;99.90;;;;;;5693234;24;20617;-84
2023/04/16 23:36:33;;;;;;;28.67;18.73;;;8.40;99.90;;;;;;5777641;24;20169;-84
